Meteo Giornale » Osservazioni meteo Stati Uniti (USA) » Clinton-Sherman
ore: 12:53 - Osservazioni Meteo Clinton-Sherman
Lat. 35° 21' N Lon. 99° 12' W Alt. 585 metri s.l.m.
36 °C
Sereno
Temp. 24 Ore
25 °C
39 °C
Sud
24 Km/h
Dew point 17 °C
Umidità 32 %
Visibilità 10 Km
Il sole sorge alle ore 07:08
Il sole tramonta alle ore 20:05
| Data e Ora | Cielo e Fenomeni | T °C | DP °C | Um. % | Pres. hPa | Vis. km | Vento km/h | |
|---|---|---|---|---|---|---|---|---|
| Oggi h: 12:53 | Sereno | 36 | 17 | 32 | 1017 | 10 | S 24 | |
| Oggi h: 11:53 | Sereno | 34 | 16 | 34 | 1017 | 10 | S/SO 27.8 | |
| Oggi h: 10:53 | Poco Nuvoloso | 33 | 17 | 38 | 1017 | 10 | S/SO 31.5 | |
| Oggi h: 09:53 | Sereno | 31 | 17 | 43 | 1017 | 10 | S 35.2 | |
| Oggi h: 08:53 | Sereno | 28 | 16 | 48 | 1017 | 10 | S 27.8 | |
| Oggi h: 07:53 | Sereno | 26 | 15 | 50 | 1016 | 10 | S 22.2 | |
| Oggi h: 06:53 | Sereno | 25 | 14 | 50 | 1016 | 10 | S 24 | |
| Oggi h: 05:53 | Sereno | 26 | 14 | 47 | 1015 | 10 | S 25.9 | |
| Oggi h: 04:53 | Sereno | 26 | 13 | 44 | 1015 | 10 | S 24 | |
| Oggi h: 03:53 | Sereno | 27 | 13 | 42 | 1015 | 10 | S 25.9 | |
| Oggi h: 02:53 | Sereno | 27 | 12 | 39 | 1015 | 10 | S 25.9 | |
| Oggi h: 01:53 | Sereno | 28 | 12 | 37 | 1014 | 10 | S 31.5 | |
| Oggi h: 00:53 | Sereno | 29 | 12 | 35 | 1014 | 10 | S 31.5 | |
| Ieri h: 23:53 | Sereno | 31 | 12 | 31 | 1014 | 10 | S/SE 33.3 | |
| Ieri h: 22:53 | Sereno | 31 | 13 | 33 | 1014 | 10 | S/SE 22.2 | |
| Ieri h: 21:53 | Sereno | 32 | 13 | 31 | 1013 | 10 | S/SE 20.3 | |
| Ieri h: 20:53 | Sereno | 33 | 13 | 29 | 1013 | 10 | S/SE 22.2 | |
| Ieri h: 19:53 | Sereno | 35 | 12 | 24 | 1012 | 10 | S 20.3 | |
| Ieri h: 18:53 | Sereno | 37 | 13 | 23 | 1012 | 10 | S/SE 29.6 | |
| Ieri h: 17:53 | Sereno | 38 | 14 | 24 | 1012 | 10 | S 31.5 | |
| Ieri h: 16:53 | Sereno | 38 | 14 | 24 | 1012 | 10 | S 33.3 | |
| Ieri h: 15:53 | Sereno | 39 | 16 | 26 | 1012 | 10 | S/SE 35.2 | |
| Ieri h: 14:53 | Sereno | 38 | 16 | 27 | 1014 | 10 | S 20.3 | |
| Ieri h: 13:53 | Sereno | 37 | 16 | 28 | 1014 | 10 | S 31.5 | |



